»·PEaware :: N728CS KLAS-KASE

N728CS :: KLAS-KASE

FLIGHT INFORMATION

Flight Status: Arrived
Operator: Privately registered:
United States
More flights under this callsign
Pilot: Chandler S. (807)
Aircraft: Unknown
(LEGA)
More flights by this aircraft type
Origin: KLAS McCarran Intl
United States
Destination: KASE Aspen-Pitkin Co/Sardy
United States
More flights between these airports :: More routes between these airports
Route: +TRALR9 VERKN HVE JNC J80 DBL
File this flight plan on PilotEdge
Remarks:
Altitude:
(Current/Filed)
41,000ft
Speed:
(Current/Filed)
300kts
Departed: 25-May-19 12:08 PM
Arrived: 25-May-19 01:14 PM
Distance/Time
Traveled:
436nm/1:06
Distance/Time
To Go:
Arrived

Flight Plot

Page will automatically refresh every two minutes.

Flight plan parsing failed; only flown route is shown


Map Options




Map Legend


Flown Route
Filed Route
Departure Airport
Arrival Airport
Navaid (VOR, NDB)
Fix

Horizontal Profiles

Position Reports

Time Latitude Longitude Heading Altitude Ground
Speed
25-May-19 11:46 36.082055 -115.171700 89 2148ft 0kts
25-May-19 11:47 36.082055 -115.171700 89 2148ft 0kts
25-May-19 11:48 36.082055 -115.171700 89 2148ft 0kts
25-May-19 11:49 36.082055 -115.171700 89 2148ft 0kts
25-May-19 11:50 36.082055 -115.171700 89 2148ft 0kts
25-May-19 11:51 36.082055 -115.171700 89 2148ft 0kts
25-May-19 11:52 36.082055 -115.171700 89 2148ft 0kts
25-May-19 11:53 36.082055 -115.171700 89 2148ft 0kts
25-May-19 11:54 36.082055 -115.171700 89 2148ft 0kts
25-May-19 11:55 36.082055 -115.171700 89 2148ft 0kts
25-May-19 11:56 36.082055 -115.171700 89 2148ft 0kts
25-May-19 11:57 36.082055 -115.171700 89 2148ft 0kts
25-May-19 11:58 36.082055 -115.171700 89 2148ft 0kts
25-May-19 11:59 36.082055 -115.171700 89 2148ft 0kts
25-May-19 12:00 36.081442 -115.170971 88 2148ft 8kts
25-May-19 12:01 36.083604 -115.167934 26 2148ft 17kts
25-May-19 12:03 36.088607 -115.165102 24 2148ft 19kts
25-May-19 12:04 36.092297 -115.163011 24 2148ft 11kts
25-May-19 12:05 36.096351 -115.160668 24 2148ft 23kts
25-May-19 12:06 36.099846 -115.157506 87 2148ft 0kts
25-May-19 12:07 36.099846 -115.157495 87 2148ft 0kts
25-May-19 12:08 36.092717 -115.160389 204 2148ft 139kts
25-May-19 12:09 36.032780 -115.194732 203 4826ft 276kts
25-May-19 12:10 35.986331 -115.268098 238 6940ft 297kts
25-May-19 12:11 35.908342 -115.277627 163 9366ft 328kts
25-May-19 12:12 35.865759 -115.187449 92 13120ft 354kts
25-May-19 12:13 35.867684 -115.066066 75 16625ft 365kts
25-May-19 12:14 35.916617 -114.952982 63 18917ft 399kts
25-May-19 12:15 35.971045 -114.824365 67 21189ft 422kts
25-May-19 12:16 36.021635 -114.693556 67 24309ft 423kts
25-May-19 12:17 36.071726 -114.563511 67 27418ft 415kts
25-May-19 12:18 36.120090 -114.437455 67 30486ft 404kts
25-May-19 12:19 36.167883 -114.312381 68 33314ft 402kts
25-May-19 12:20 36.200405 -114.187817 87 35893ft 381kts
25-May-19 12:21 36.216255 -114.055855 87 36919ft 413kts
25-May-19 12:22 36.234328 -113.903071 86 36946ft 481kts
25-May-19 12:23 36.254615 -113.729704 85 36955ft 524kts
25-May-19 12:23 36.271941 -113.579702 85 36956ft 529kts
25-May-19 12:25 36.295949 -113.368775 85 37004ft 531kts
25-May-19 12:25 36.321244 -113.219623 67 37023ft 540kts
25-May-19 12:26 36.430103 -113.092582 41 37043ft 544kts
25-May-19 12:28 36.560936 -112.945463 41 37046ft 545kts
25-May-19 12:28 36.654224 -112.840589 39 37043ft 543kts
25-May-19 12:30 36.787684 -112.701576 38 37055ft 540kts
25-May-19 12:30 36.876812 -112.608324 38 37064ft 539kts
25-May-19 12:31 36.991363 -112.488057 38 37071ft 539kts
25-May-19 12:32 37.105877 -112.367325 39 37070ft 537kts
25-May-19 12:33 37.219840 -112.246655 39 37065ft 534kts
25-May-19 12:34 37.333776 -112.125542 39 37104ft 532kts
25-May-19 12:35 37.440794 -111.997905 46 37118ft 533kts
25-May-19 12:36 37.507881 -111.910375 46 37118ft 533kts
25-May-19 12:37 37.632511 -111.747097 46 37120ft 533kts
25-May-19 12:38 37.735116 -111.612037 46 37123ft 534kts
25-May-19 12:39 37.837866 -111.476208 46 37124ft 534kts
25-May-19 12:40 37.940161 -111.340401 46 37118ft 534kts
25-May-19 12:41 38.042815 -111.203523 46 37042ft 535kts
25-May-19 12:42 38.144678 -111.067105 46 37022ft 534kts
25-May-19 12:43 38.246663 -110.929932 46 37024ft 535kts
25-May-19 12:44 38.348700 -110.792091 46 37027ft 536kts
25-May-19 12:45 38.436829 -110.641730 67 37031ft 533kts
25-May-19 12:46 38.497092 -110.468277 67 37030ft 534kts
25-May-19 12:47 38.556960 -110.294489 68 37016ft 534kts
25-May-19 12:48 38.616410 -110.120862 68 36999ft 534kts
25-May-19 12:49 38.675802 -109.946369 68 37000ft 534kts
25-May-19 12:50 38.734779 -109.772049 68 37002ft 534kts
25-May-19 12:51 38.793554 -109.597264 68 37004ft 535kts
25-May-19 12:52 38.851875 -109.422776 68 37006ft 535kts
25-May-19 12:53 38.910232 -109.247094 68 37001ft 534kts
25-May-19 12:54 38.968166 -109.071664 69 37012ft 533kts
25-May-19 12:55 39.025858 -108.895782 69 37033ft 536kts
25-May-19 12:56 39.075469 -108.716400 77 37034ft 534kts
25-May-19 12:57 39.113865 -108.531585 77 37026ft 534kts
25-May-19 12:58 39.151131 -108.350686 77 35076ft 502kts
25-May-19 12:59 39.185196 -108.183799 78 32725ft 471kts
25-May-19 13:00 39.217453 -108.024589 78 30358ft 448kts
25-May-19 13:01 39.248178 -107.871860 78 27842ft 434kts
25-May-19 13:02 39.277887 -107.723047 78 25326ft 421kts
25-May-19 13:03 39.304981 -107.586663 79 22528ft 341kts
25-May-19 13:04 39.328437 -107.467408 79 19472ft 325kts
25-May-19 13:05 39.349757 -107.358417 79 16217ft 324kts
25-May-19 13:06 39.370951 -107.249661 79 12908ft 318kts
25-May-19 13:07 39.371321 -107.140603 99 10867ft 295kts
25-May-19 13:08 39.361854 -107.038113 108 10790ft 275kts
25-May-19 13:09 39.336833 -106.960703 125 10881ft 213kts
25-May-19 13:10 39.301203 -106.908239 148 9729ft 171kts
25-May-19 13:11 39.262493 -106.886866 166 8691ft 153kts
25-May-19 13:12 39.224643 -106.869523 160 7826ft 125kts
25-May-19 13:13 39.217440 -106.864864 339 7826ft 6kts
25-May-19 13:14 39.220816 -106.866560 338 7826ft 16kts
25-May-19 13:15 39.222092 -106.866636 249 7826ft 0kts
25-May-19 13:16 39.222092 -106.866636 249 7826ft 0kts
25-May-19 13:17 39.222092 -106.866636 249 7826ft 0kts
25-May-19 13:18 39.222092 -106.866636 249 7826ft 0kts
25-May-19 13:19 39.222092 -106.866636 249 7826ft 0kts

Navigation Log

Ident Type
Flight plan parsing failed, navigation log unavailable